Station Historical Data
Daily Summary for October 29, 2017 Units:  Metric    English   Both
« Previous Day
Next Day »
Daily Weekly Monthly Yearly Custom
  High: Low: Average:
Temperature: 6.6 °C 4.8 °C 5.7 °C
Dew Point: 5.2 °C 3 °C 4 °C
Humidity: 92% 82% 89%
Wind Speed: 8km/h 0km/h 1.1km/h
Wind Gust: 22.5km/h - -
Wind- - WNW
Pressure: 1012.1 hPa 998.2 hPa -
Precipitation: 0 mm    
Historical Graphs
 
 
Tabular Data for October 29, 2017
Time Temperature Dew Point Pressure Wind Wind Speed Wind Gust Humidity Rainfall Rate (Hourly)
00:04 5.6 °C 3.6 °C 1011.7 hPa Calm     87% 0 mm
00:09 5.5 °C 3.3 °C 1011.7 hPa Calm     86% 0 mm
00:14 5.6 °C 3.4 °C 1012.1 hPa Calm     86% 0 mm
00:19 5.6 °C 3.4 °C 1011.7 hPa Calm     86% 0 mm
00:24 5.6 °C 3.4 °C 1011.7 hPa Calm     86% 0 mm
00:29 5.5 °C 3.3 °C 1012.1 hPa Calm     86% 0 mm
00:34 5.6 °C 3.6 °C 1012.1 hPa Calm     87% 0 mm
00:39 5.6 °C 3.6 °C 1011.7 hPa Calm     87% 0 mm
00:44 5.6 °C 3.6 °C 1011.7 hPa Calm     87% 0 mm
00:49 5.5 °C 3.5 °C 1011.7 hPa Calm     87% 0 mm
00:54 5.6 °C 3.6 °C 1011.7 hPa Calm     87% 0 mm
00:59 5.6 °C 3.6 °C 1011.7 hPa Calm     87% 0 mm
01:05 5.6 °C 3.6 °C 1011.7 hPa Calm     87% 0 mm
01:10 5.6 °C 3.6 °C 1011.4 hPa Calm     87% 0 mm
01:15 5.7 °C 3.8 °C 1011.4 hPa Calm     88% 0 mm
01:20 5.7 °C 3.9 °C 1011.4 hPa Calm     88% 0 mm
01:25 5.7 °C 3.9 °C 1011.4 hPa Calm     88% 0 mm
01:30 5.7 °C 3.9 °C 1011.7 hPa Calm     88% 0 mm
01:35 5.8 °C 3.9 °C 1011.4 hPa Calm     88% 0 mm
01:40 5.8 °C 4 °C 1011.4 hPa Calm     88% 0 mm
01:45 5.8 °C 3.9 °C 1011.4 hPa Calm     88% 0 mm
01:50 5.8 °C 3.9 °C 1011.4 hPa Calm     88% 0 mm
01:55 5.8 °C 3.9 °C 1011.4 hPa Calm     88% 0 mm
02:00 5.8 °C 4 °C 1011.4 hPa Calm     88% 0 mm
02:05 5.8 °C 3.9 °C 1011.7 hPa Calm     88% 0 mm
02:10 5.7 °C 3.9 °C 1011.7 hPa Calm     88% 0 mm
02:15 5.6 °C 3.7 °C 1011.4 hPa Calm     88% 0 mm
02:20 5.4 °C 3.6 °C 1011.4 hPa Calm     88% 0 mm
02:25 5.3 °C 3.3 °C 1011.4 hPa Calm     87% 0 mm
02:30 5.1 °C 3.1 °C 1011.4 hPa Calm     87% 0 mm
02:35 5.2 °C 3.2 °C 1011.4 hPa Calm     87% 0 mm
02:40 5.2 °C 3.2 °C 1011.4 hPa Calm     87% 0 mm
02:45 5.2 °C 3 °C 1011.4 hPa Calm     86% 0 mm
02:50 5.2 °C 3 °C 1011.1 hPa Calm     86% 0 mm
02:55 5.2 °C 3.1 °C 1011.1 hPa Calm     86% 0 mm
03:00 5.3 °C 3.1 °C 1011.1 hPa Calm     86% 0 mm
03:05 5.3 °C 3.1 °C 1010.7 hPa Calm     86% 0 mm
03:10 5.3 °C 3.1 °C 1010.4 hPa Calm     86% 0 mm
03:15 5.3 °C 3.2 °C 1010 hPa ENE 1.6 km/h 6.4 km/h 86% 0 mm
03:20 5.3 °C 3.2 °C 1010.4 hPa Calm   4.8 km/h 86% 0 mm
03:25 5.3 °C 3.2 °C 1010.7 hPa ENE 1.6 km/h 4.8 km/h 86% 0 mm
03:30 5.3 °C 3 °C 1011.1 hPa Calm   4.8 km/h 85% 0 mm
03:35 5.4 °C 3.1 °C 1011.1 hPa Calm     85% 0 mm
03:40 5.4 °C 3.1 °C 1011.1 hPa Calm     85% 0 mm
03:45 5.4 °C 3.1 °C 1011.1 hPa Calm     85% 0 mm
03:50 5.4 °C 3.1 °C 1010.7 hPa Calm     85% 0 mm
03:54 5.6 °C 3.2 °C 1010.7 hPa Calm     85% 0 mm
04:00 5.6 °C 3.4 °C 1010.7 hPa Calm     86% 0 mm
04:05 5.6 °C 3.4 °C 1010.7 hPa Calm     86% 0 mm
04:10 5.7 °C 3.5 °C 1010.7 hPa Calm     86% 0 mm
04:15 5.7 °C 3.7 °C 1010.7 hPa Calm     87% 0 mm
04:20 5.7 °C 3.7 °C 1010.7 hPa Calm     87% 0 mm
04:25 5.7 °C 3.7 °C 1010.7 hPa Calm     87% 0 mm
04:30 5.7 °C 3.7 °C 1010.7 hPa Calm     87% 0 mm
04:35 5.7 °C 3.7 °C 1010.4 hPa Calm     87% 0 mm
04:40 5.8 °C 3.9 °C 1010.4 hPa Calm     88% 0 mm
04:45 5.7 °C 3.7 °C 1010.4 hPa Calm     87% 0 mm
04:49 5.7 °C 3.7 °C 1010.4 hPa Calm     87% 0 mm
04:55 5.6 °C 3.6 °C 1010.4 hPa Calm     87% 0 mm
05:00 5.6 °C 3.6 °C 1010.7 hPa Calm     87% 0 mm
05:05 5.7 °C 3.7 °C 1010.4 hPa Calm     87% 0 mm
05:10 5.7 °C 3.7 °C 1010.4 hPa Calm     87% 0 mm
05:15 5.7 °C 3.7 °C 1010.7 hPa Calm     87% 0 mm
05:20 5.7 °C 3.7 °C 1010.4 hPa Calm     87% 0 mm
05:25 5.6 °C 3.6 °C 1010.4 hPa Calm     87% 0.25 mm
05:30 5.6 °C 3.6 °C 1010.4 hPa Calm     87% 0.25 mm
05:34 5.6 °C 3.6 °C 1010.4 hPa Calm   3.2 km/h 87% 0.25 mm
05:40 5.6 °C 3.6 °C 1010.4 hPa Calm   3.2 km/h 87% 0.51 mm
05:45 5.5 °C 3.5 °C 1010.4 hPa Calm     87% 0.51 mm
05:50 5.5 °C 3.5 °C 1010.4 hPa Calm     87% 0.76 mm
05:55 5.4 °C 3.4 °C 1010.4 hPa Calm     87% 0.76 mm
06:00 5.3 °C 3.3 °C 1010.4 hPa Calm     87% 0.76 mm
06:04 5.3 °C 3.5 °C 1010.4 hPa Calm     88% 0.76 mm
06:09 5.4 °C 3.6 °C 1010.4 hPa Calm     88% 1.02 mm
06:20 5.3 °C 3.5 °C 1010.4 hPa Calm     88% 1.02 mm
06:25 5.4 °C 3.6 °C 1010.4 hPa Calm     88% 1.02 mm
06:30 5.3 °C 3.7 °C 1010.4 hPa Calm     89% 1.02 mm
06:35 5.3 °C 3.6 °C 1010.4 hPa Calm     89% 1.02 mm
06:39 5.3 °C 3.6 °C 1010.4 hPa Calm     89% 0.76 mm
06:45 5.2 °C 3.6 °C 1010.4 hPa Calm     89% 1.02 mm
06:50 5.2 °C 3.5 °C 1010.4 hPa Calm     89% 0.76 mm
06:55 5.2 °C 3.5 °C 1010.4 hPa Calm     89% 0.76 mm
07:00 5.1 °C 3.4 °C 1010.4 hPa Calm     89% 0.76 mm
07:04 5.1 °C 3.4 °C 1010.4 hPa Calm     89% 1.02 mm
07:09 5.1 °C 3.4 °C 1010.4 hPa Calm     89% 0.76 mm
07:14 5.1 °C 3.4 °C 1010.4 hPa Calm     89% 0.76 mm
07:20 5.2 °C 3.7 °C 1010.4 hPa Calm     90% 1.02 mm
07:25 5.2 °C 3.7 °C 1010.4 hPa Calm     90% 0.76 mm
07:30 5.2 °C 3.7 °C 1010 hPa Calm     90% 1.02 mm
07:35 5.2 °C 3.7 °C 1010 hPa Calm     90% 1.27 mm
07:40 5.2 °C 3.7 °C 1010 hPa Calm     90% 1.52 mm
07:44 5.2 °C 3.7 °C 1010 hPa Calm   4.8 km/h 90% 1.27 mm
07:49 5.1 °C 3.6 °C 1010 hPa Calm   6.4 km/h 90% 1.52 mm
07:55 5.1 °C 3.6 °C 1010 hPa Calm   6.4 km/h 90% 1.52 mm
08:00 5.1 °C 3.6 °C 1010 hPa Calm   1.6 km/h 90% 1.52 mm
08:04 5.1 °C 3.6 °C 1010 hPa Calm     90% 1.52 mm
08:09 5.1 °C 3.6 °C 1010.4 hPa Calm   3.2 km/h 90% 1.52 mm
08:14 5 °C 3.5 °C 1010.4 hPa Calm   3.2 km/h 90% 1.52 mm
08:19 5 °C 3.5 °C 1010 hPa Calm   3.2 km/h 90% 1.27 mm
08:24 5 °C 3.5 °C 1010 hPa Calm   3.2 km/h 90% 1.27 mm
08:29 4.9 °C 3.4 °C 1010 hPa Calm   1.6 km/h 90% 1.02 mm
08:35 4.8 °C 3.3 °C 1010 hPa Calm     90% 0.76 mm
08:40 4.9 °C 3.4 °C 1010 hPa Calm     90% 0.51 mm
08:45 4.9 °C 3.6 °C 1010 hPa Calm     91% 0.51 mm
08:50 4.9 °C 3.4 °C 1009.7 hPa Calm   4.8 km/h 90% 0.25 mm
08:54 4.9 °C 3.4 °C 1010 hPa Calm   4.8 km/h 90% 0.25 mm
08:59 4.9 °C 3.6 °C 1010 hPa Calm   3.2 km/h 91% 0.25 mm
09:05 4.9 °C 3.6 °C 1010 hPa Calm     91% 0 mm
09:09 4.9 °C 3.6 °C 1010 hPa Calm     91% 0.25 mm
09:14 4.9 °C 3.4 °C 1010 hPa Calm     90% 0.25 mm
09:19 4.9 °C 3.4 °C 1009.7 hPa Calm   8 km/h 90% 0.25 mm
09:24 4.9 °C 3.4 °C 1010 hPa NE 1.6 km/h 8 km/h 90% 0.51 mm
09:29 4.9 °C 3.4 °C 1009.7 hPa NE 1.6 km/h 6.4 km/h 90% 0.51 mm
09:34 4.9 °C 3.4 °C 1009.7 hPa Calm   4.8 km/h 90% 0.51 mm
09:40 5.1 °C 3.7 °C 1010 hPa Calm     91% 0.76 mm
09:45 5.1 °C 3.7 °C 1009.7 hPa Calm   3.2 km/h 91% 0.76 mm
09:50 5.1 °C 3.7 °C 1009.7 hPa NNE 1.6 km/h 6.4 km/h 91% 0.76 mm
09:55 5.1 °C 3.8 °C 1009.7 hPa Calm   1.6 km/h 91% 1.02 mm
09:59 5.1 °C 3.7 °C 1009.4 hPa NNE 1.6 km/h 4.8 km/h 91% 1.02 mm
10:04 5.1 °C 3.8 °C 1009 hPa NNE 1.6 km/h 4.8 km/h 91% 1.02 mm
10:10 5.2 °C 3.9 °C 1008.7 hPa Calm   3.2 km/h 91% 1.02 mm
10:15 5.2 °C 3.9 °C 1008.7 hPa Calm   4.8 km/h 91% 1.02 mm
10:19 5.2 °C 3.8 °C 1008.7 hPa Calm   8 km/h 91% 1.02 mm
10:24 5.2 °C 3.9 °C 1009 hPa North 1.6 km/h 8 km/h 91% 0.76 mm
10:29 5.2 °C 3.9 °C 1009 hPa North 1.6 km/h 8 km/h 91% 1.02 mm
10:34 5.3 °C 3.9 °C 1009 hPa NNW 1.6 km/h 6.4 km/h 91% 1.02 mm
10:39 5.3 °C 4 °C 1008.7 hPa Calm   8 km/h 91% 0.76 mm
10:44 5.4 °C 4.1 °C 1008.7 hPa NE 3.2 km/h 14.5 km/h 91% 1.02 mm
10:49 5.4 °C 4.1 °C 1008 hPa NNE 1.6 km/h 8 km/h 91% 1.02 mm
10:54 5.3 °C 4 °C 1008 hPa Calm   14.5 km/h 91% 1.02 mm
11:00 5.3 °C 4 °C 1008.4 hPa NE 4.8 km/h 12.9 km/h 91% 1.02 mm
11:04 5.3 °C 3.9 °C 1008.7 hPa NE 3.2 km/h 14.5 km/h 91% 1.02 mm
11:09 5.2 °C 3.9 °C 1008.7 hPa NNE 3.2 km/h 14.5 km/h 91% 0.76 mm
11:14 5.3 °C 4 °C 1008.7 hPa North 1.6 km/h 9.7 km/h 91% 0.76 mm
11:19 5.4 °C 4.1 °C 1008.4 hPa NNW 1.6 km/h 8 km/h 91% 0.76 mm
11:25 5.6 °C 4.2 °C 1008.4 hPa Calm   8 km/h 91% 0.76 mm
11:29 5.6 °C 4.3 °C 1008 hPa North 1.6 km/h 3.2 km/h 91% 0.51 mm
11:34 5.7 °C 4.3 °C 1007.7 hPa Calm   4.8 km/h 91% 0.51 mm
11:39 5.7 °C 4.3 °C 1007.7 hPa Calm   4.8 km/h 91% 0.51 mm
11:44 5.7 °C 4.4 °C 1008 hPa Calm   3.2 km/h 91% 0.25 mm
11:49 5.7 °C 4.3 °C 1008.7 hPa Calm     91% 0.25 mm
11:54 5.7 °C 4.3 °C 1008.7 hPa NNW 3.2 km/h 6.4 km/h 91% 0 mm
11:59 5.5 °C 4.2 °C 1008.4 hPa Calm   6.4 km/h 91% 0 mm
12:04 5.5 °C 4.2 °C 1008.4 hPa Calm   6.4 km/h 91% 0 mm
12:09 5.6 °C 4.3 °C 1008 hPa Calm   6.4 km/h 91% 0 mm
12:14 5.7 °C 4.4 °C 1007.7 hPa Calm   4.8 km/h 91% 0 mm
12:19 5.8 °C 4.4 °C 1007.7 hPa Calm   4.8 km/h 91% 0 mm
12:24 5.8 °C 4.5 °C 1007.7 hPa Calm   3.2 km/h 91% 0.25 mm
12:30 5.8 °C 4.4 °C 1007.7 hPa Calm   6.4 km/h 91% 0.25 mm
12:34 5.7 °C 4.4 °C 1007.3 hPa Calm   8 km/h 91% 0.25 mm
12:39 5.7 °C 4.4 °C 1007.3 hPa North 1.6 km/h 8 km/h 91% 0.25 mm
12:44 5.8 °C 4.4 °C 1007.3 hPa Calm   6.4 km/h 91% 0.25 mm
12:49 5.7 °C 4.4 °C 1007.7 hPa NNE 3.2 km/h 4.8 km/h 91% 0.25 mm
12:54 5.7 °C 4.4 °C 1007.7 hPa NNE 4.8 km/h 6.4 km/h 91% 0.25 mm
12:59 5.7 °C 4.4 °C 1007.3 hPa Calm   4.8 km/h 91% 0.25 mm
13:04 5.8 °C 4.5 °C 1007.7 hPa Calm     91% 0.25 mm
13:09 5.9 °C 4.6 °C 1007.7 hPa Calm   4.8 km/h 91% 0.25 mm
13:14 5.9 °C 4.6 °C 1007.3 hPa Calm   4.8 km/h 91% 0.25 mm
13:19 6.1 °C 4.7 °C 1007.3 hPa Calm   4.8 km/h 91% 0.51 mm
13:24 6.1 °C 4.7 °C 1007 hPa Calm   3.2 km/h 91% 0.25 mm
13:29 6.1 °C 4.8 °C 1007 hPa Calm   3.2 km/h 91% 0.51 mm
13:35 6.2 °C 4.8 °C 1006.7 hPa Calm   3.2 km/h 91% 0.76 mm
13:39 6.2 °C 4.8 °C 1006.7 hPa Calm   3.2 km/h 91% 0.76 mm
13:44 6.1 °C 4.8 °C 1006.7 hPa Calm   4.8 km/h 91% 0.76 mm
13:49 6.2 °C 4.8 °C 1006.7 hPa Calm   3.2 km/h 91% 1.02 mm
13:54 6.1 °C 4.7 °C 1006.7 hPa Calm   1.6 km/h 91% 1.02 mm
13:59 6 °C 4.7 °C 1006.7 hPa Calm   6.4 km/h 91% 1.02 mm
14:04 6.1 °C 4.7 °C 1006.3 hPa Calm   6.4 km/h 91% 1.27 mm
14:09 6.1 °C 4.8 °C 1006 hPa Calm   4.8 km/h 91% 1.27 mm
14:14 6.2 °C 4.9 °C 1006 hPa Calm   3.2 km/h 91% 1.52 mm
14:19 6.1 °C 4.7 °C 1006 hPa NNW 1.6 km/h 8 km/h 91% 1.27 mm
14:24 6 °C 4.7 °C 1006 hPa NNW 1.6 km/h 8 km/h 91% 1.27 mm
14:29 6.1 °C 4.8 °C 1005.6 hPa NNW 1.6 km/h 8 km/h 91% 1.27 mm
14:34 6.1 °C 4.8 °C 1005.6 hPa NNW 3.2 km/h 11.3 km/h 91% 1.02 mm
14:39 6.3 °C 5.1 °C 1005.3 hPa NNW 3.2 km/h 11.3 km/h 92% 1.02 mm
14:44 6.6 °C 5.2 °C 1005.3 hPa NNW 6.4 km/h 6.4 km/h 91% 1.02 mm
14:49 6.6 °C 5.2 °C 1005.3 hPa NNW 3.2 km/h 8 km/h 91% 0.76 mm
14:54 6.4 °C 5 °C 1005.3 hPa NNW 8 km/h 8 km/h 91% 0.76 mm
14:59 6.4 °C 5 °C 1005.3 hPa NNW 1.6 km/h 8 km/h 91% 0.76 mm
15:04 6.3 °C 4.9 °C 1005.3 hPa Calm   12.9 km/h 91% 0.51 mm
15:09 6.2 °C 4.8 °C 1005.3 hPa Calm   12.9 km/h 91% 0.51 mm
15:14 6.2 °C 4.8 °C 1005.3 hPa Calm   8 km/h 91% 0.25 mm
15:19 6.2 °C 4.8 °C 1005.6 hPa NW 4.8 km/h 9.7 km/h 91% 0.25 mm
15:24 6.2 °C 4.8 °C 1005.6 hPa NNW 3.2 km/h 9.7 km/h 91% 0.25 mm
15:29 6.3 °C 4.9 °C 1006 hPa NNW 1.6 km/h 8 km/h 91% 0 mm
15:34 6.2 °C 4.7 °C 1006 hPa NNW 1.6 km/h 6.4 km/h 90% 0 mm
15:39 6.1 °C 4.6 °C 1006 hPa NNW 1.6 km/h 6.4 km/h 90% 0 mm
15:44 6.2 °C 4.8 °C 1005.6 hPa Calm   6.4 km/h 91% 0 mm
15:49 6.2 °C 4.7 °C 1005.3 hPa Calm   8 km/h 90% 0 mm
15:54 6.3 °C 4.8 °C 1005.3 hPa Calm   4.8 km/h 90% 0 mm
15:59 6.3 °C 4.8 °C 1005.3 hPa NNW 1.6 km/h 8 km/h 90% 0 mm
16:04 6.2 °C 4.7 °C 1005.3 hPa NNW 1.6 km/h 8 km/h 90% 0.25 mm
16:09 6.3 °C 4.8 °C 1005.3 hPa Calm   4.8 km/h 90% 0.25 mm
16:14 6.2 °C 4.7 °C 1005 hPa NNW 4.8 km/h 9.7 km/h 90% 0.25 mm
16:19 6.2 °C 4.7 °C 1005 hPa NW 4.8 km/h 8 km/h 90% 0.25 mm
16:24 6.1 °C 4.6 °C 1004.6 hPa North 3.2 km/h 6.4 km/h 90% 0.25 mm
16:29 6.1 °C 4.6 °C 1005 hPa North 8 km/h 8 km/h 90% 0.25 mm
16:34 6 °C 4.5 °C 1005 hPa NNW 3.2 km/h 9.7 km/h 90% 0.25 mm
16:39 6 °C 4.5 °C 1005 hPa NNW 3.2 km/h 9.7 km/h 90% 0.25 mm
16:44 5.9 °C 4.4 °C 1005 hPa NNW 3.2 km/h 9.7 km/h 90% 0.25 mm
16:49 5.9 °C 4.4 °C 1004.6 hPa NNW 1.6 km/h 9.7 km/h 90% 0.25 mm
16:54 5.9 °C 4.4 °C 1004.6 hPa Calm   8 km/h 90% 0.25 mm
16:59 5.9 °C 4.4 °C 1004.6 hPa Calm   4.8 km/h 90% 0.25 mm
17:04 6 °C 4.5 °C 1004.6 hPa NNW 1.6 km/h 9.7 km/h 90% 0 mm
17:09 6 °C 4.5 °C 1005 hPa NW 1.6 km/h 9.7 km/h 90% 0.25 mm
17:14 6 °C 4.5 °C 1005 hPa North 4.8 km/h 6.4 km/h 90% 0.25 mm
17:19 5.9 °C 4.4 °C 1004.6 hPa NNW 1.6 km/h 11.3 km/h 90% 0.25 mm
17:24 5.9 °C 4.4 °C 1004.6 hPa NW 3.2 km/h 8 km/h 90% 0.25 mm
17:29 5.9 °C 4.4 °C 1004.6 hPa NNE 1.6 km/h 8 km/h 90% 0.25 mm
17:34 5.9 °C 4.4 °C 1004.6 hPa North 6.4 km/h 6.4 km/h 90% 0.25 mm
17:44 5.9 °C 4.4 °C 1004.6 hPa NNW 1.6 km/h 8 km/h 90% 0.25 mm
17:49 5.9 °C 4.4 °C 1004.6 hPa Calm   6.4 km/h 90% 0.25 mm
17:54 5.9 °C 4.4 °C 1004.6 hPa NNW 1.6 km/h 6.4 km/h 90% 0.25 mm
17:59 5.9 °C 4.4 °C 1004.3 hPa NNW 1.6 km/h 8 km/h 90% 0.25 mm
18:04 5.9 °C 4.4 °C 1004.3 hPa Calm   3.2 km/h 90% 0.25 mm
18:09 5.8 °C 4.3 °C 1004.3 hPa Calm   8 km/h 90% 0 mm
18:14 5.8 °C 4.3 °C 1004.3 hPa NNW 1.6 km/h 8 km/h 90% 0 mm
18:19 5.8 °C 4.3 °C 1004.3 hPa NNW 1.6 km/h 8 km/h 90% 0 mm
18:24 5.8 °C 4.3 °C 1004.3 hPa NW 1.6 km/h 4.8 km/h 90% 0 mm
18:29 5.8 °C 4.3 °C 1003.9 hPa NW 1.6 km/h 6.4 km/h 90% 0 mm
18:34 5.8 °C 4.3 °C 1004.3 hPa Calm   6.4 km/h 90% 0 mm
18:39 5.8 °C 4.3 °C 1004.3 hPa Calm   1.6 km/h 90% 0 mm
18:44 5.8 °C 4.3 °C 1003.9 hPa NNW 4.8 km/h 6.4 km/h 90% 0 mm
18:49 5.8 °C 4.3 °C 1003.9 hPa Calm   6.4 km/h 90% 0 mm
18:54 5.8 °C 4.3 °C 1003.9 hPa NNW 1.6 km/h 6.4 km/h 90% 0 mm
18:59 5.8 °C 4.3 °C 1003.9 hPa NW 1.6 km/h 6.4 km/h 90% 0 mm
19:04 5.8 °C 4.3 °C 1003.9 hPa NW 1.6 km/h 6.4 km/h 90% 0 mm
19:09 5.8 °C 4.2 °C 1003.6 hPa NNW 3.2 km/h 9.7 km/h 89% 0 mm
19:14 5.8 °C 4.2 °C 1003.6 hPa North 1.6 km/h 8 km/h 89% 0 mm
19:19 5.8 °C 4.2 °C 1003.6 hPa NNW 1.6 km/h 12.9 km/h 89% 0 mm
19:24 5.8 °C 4.1 °C 1003.3 hPa NW 8 km/h 9.7 km/h 89% 0 mm
19:29 5.8 °C 4.1 °C 1003.3 hPa NNW 3.2 km/h 12.9 km/h 89% 0 mm
19:34 5.8 °C 4.1 °C 1002.9 hPa NNW 4.8 km/h 11.3 km/h 89% 0 mm
19:39 5.8 °C 4.1 °C 1002.9 hPa NNW 3.2 km/h 11.3 km/h 89% 0 mm
19:44 5.8 °C 4.1 °C 1002.6 hPa NNW 6.4 km/h 12.9 km/h 89% 0 mm
19:49 5.8 °C 4.1 °C 1002.6 hPa NNW 3.2 km/h 12.9 km/h 89% 0 mm
19:54 5.8 °C 4.1 °C 1002.6 hPa NNW 3.2 km/h 12.9 km/h 89% 0 mm
19:59 5.7 °C 4.1 °C 1002.6 hPa North 1.6 km/h 8 km/h 89% 0 mm
20:04 5.7 °C 4.1 °C 1002.6 hPa Calm   4.8 km/h 89% 0 mm
20:09 5.7 °C 4.1 °C 1002.6 hPa Calm   3.2 km/h 89% 0 mm
20:14 5.7 °C 4.1 °C 1002.6 hPa NNW 1.6 km/h 6.4 km/h 89% 0 mm
20:19 5.8 °C 4.1 °C 1002.6 hPa Calm   3.2 km/h 89% 0 mm
20:24 5.8 °C 4.2 °C 1002.3 hPa Calm   3.2 km/h 89% 0 mm
20:29 5.8 °C 4.2 °C 1002.3 hPa Calm   3.2 km/h 89% 0 mm
20:34 5.8 °C 4.2 °C 1002.3 hPa Calm   3.2 km/h 89% 0 mm
20:39 5.8 °C 4.2 °C 1002.3 hPa NW 3.2 km/h 4.8 km/h 89% 0 mm
20:44 5.9 °C 4.2 °C 1002.3 hPa Calm   3.2 km/h 89% 0 mm
20:49 5.8 °C 4.2 °C 1002.3 hPa Calm   1.6 km/h 89% 0 mm
20:54 5.8 °C 4.2 °C 1001.9 hPa Calm     89% 0 mm
20:59 5.9 °C 4.2 °C 1001.9 hPa Calm   4.8 km/h 89% 0 mm
21:04 5.9 °C 4.3 °C 1001.9 hPa Calm   8 km/h 89% 0 mm
21:09 5.9 °C 4.3 °C 1001.6 hPa Calm   4.8 km/h 89% 0 mm
21:14 5.9 °C 4.1 °C 1001.6 hPa NW 3.2 km/h 4.8 km/h 88% 0 mm
21:19 6 °C 4.2 °C 1001.6 hPa WNW 3.2 km/h 8 km/h 88% 0 mm
21:24 6 °C 4.2 °C 1001.2 hPa Calm   8 km/h 88% 0 mm
21:29 6.1 °C 4.2 °C 1001.2 hPa NW 1.6 km/h 8 km/h 88% 0 mm
21:34 6.1 °C 4.1 °C 1001.2 hPa NW 3.2 km/h 9.7 km/h 87% 0 mm
21:39 6.1 °C 4.1 °C 1001.6 hPa NW 3.2 km/h 9.7 km/h 87% 0 mm
21:44 6.1 °C 4.1 °C 1001.2 hPa Calm   6.4 km/h 87% 0 mm
21:49 6.1 °C 3.9 °C 1000.9 hPa Calm   8 km/h 86% 0 mm
21:54 6.1 °C 3.9 °C 1000.6 hPa Calm   8 km/h 86% 0 mm
21:59 6.1 °C 3.9 °C 1000.6 hPa Calm   9.7 km/h 86% 0 mm
22:04 6.2 °C 4 °C 1000.6 hPa NW 3.2 km/h 9.7 km/h 86% 0 mm
22:09 6.2 °C 3.8 °C 1000.2 hPa NW 1.6 km/h 8 km/h 85% 0 mm
22:14 6.2 °C 3.8 °C 999.9 hPa NW 1.6 km/h 9.7 km/h 85% 0 mm
22:19 6.2 °C 3.9 °C 999.9 hPa NW 3.2 km/h 12.9 km/h 85% 0 mm
22:24 6.2 °C 3.9 °C 999.9 hPa NW 3.2 km/h 12.9 km/h 85% 0 mm
22:29 6.2 °C 3.9 °C 999.9 hPa NW 3.2 km/h 11.3 km/h 85% 0 mm
22:34 6.3 °C 3.9 °C 999.5 hPa NW 3.2 km/h 11.3 km/h 85% 0 mm
22:39 6.3 °C 3.9 °C 999.5 hPa Calm   9.7 km/h 85% 0 mm
22:44 6.3 °C 3.8 °C 999.5 hPa WNW 1.6 km/h 8 km/h 84% 0 mm
22:49 6.3 °C 3.8 °C 999.2 hPa North 8 km/h 9.7 km/h 84% 0 mm
22:54 6.3 °C 3.8 °C 998.9 hPa NW 8 km/h 14.5 km/h 84% 0 mm
22:59 6.3 °C 3.8 °C 998.9 hPa NW 4.8 km/h 17.7 km/h 84% 0 mm
23:04 6.4 °C 3.9 °C 999.2 hPa Calm   14.5 km/h 84% 0 mm
23:09 6.4 °C 3.9 °C 999.2 hPa NW 4.8 km/h 16.1 km/h 84% 0 mm
23:19 6.4 °C 3.8 °C 999.2 hPa NW 6.4 km/h 17.7 km/h 83% 0 mm
23:24 6.4 °C 3.8 °C 998.9 hPa NW 6.4 km/h 17.7 km/h 83% 0 mm
23:29 6.5 °C 3.8 °C 998.9 hPa NW 4.8 km/h 11.3 km/h 83% 0 mm
23:34 6.6 °C 3.9 °C 998.5 hPa NW 6.4 km/h 16.1 km/h 83% 0 mm
23:39 6.6 °C 3.9 °C 998.5 hPa NNW 4.8 km/h 16.1 km/h 83% 0 mm
23:44 6.6 °C 3.7 °C 998.5 hPa West 4.8 km/h 14.5 km/h 82% 0 mm
23:49 6.6 °C 3.8 °C 998.5 hPa NW 4.8 km/h 14.5 km/h 82% 0 mm
23:54 6.6 °C 3.7 °C 998.5 hPa NW 4.8 km/h 22.5 km/h 82% 0 mm
23:59 6.6 °C 3.7 °C 998.2 hPa NW 4.8 km/h 20.9 km/h 82% 0 mm
Buffalo, New York, USA
Compliments of Weather Underground - 2.5 mb